sensor_id;sensor_type;location;lat;lon;timestamp;P1;durP1;ratioP1;P2;durP2;ratioP2
7545;SDS011;3814;51.454;12.616;2022-10-31T00:00:30;12.90;;;5.22;;
7545;SDS011;3814;51.454;12.616;2022-10-31T00:02:55;12.43;;;5.60;;
7545;SDS011;3814;51.454;12.616;2022-10-31T00:05:20;12.02;;;5.90;;
7545;SDS011;3814;51.454;12.616;2022-10-31T00:07:46;11.98;;;5.38;;
7545;SDS011;3814;51.454;12.616;2022-10-31T00:10:11;11.55;;;5.72;;
7545;SDS011;3814;51.454;12.616;2022-10-31T00:12:36;11.10;;;5.30;;
7545;SDS011;3814;51.454;12.616;2022-10-31T00:15:02;10.10;;;5.05;;
7545;SDS011;3814;51.454;12.616;2022-10-31T00:17:27;8.35;;;5.00;;
7545;SDS011;3814;51.454;12.616;2022-10-31T00:19:52;15.15;;;5.28;;
7545;SDS011;3814;51.454;12.616;2022-10-31T00:22:18;10.52;;;5.38;;
7545;SDS011;3814;51.454;12.616;2022-10-31T00:24:43;10.98;;;5.03;;
7545;SDS011;3814;51.454;12.616;2022-10-31T00:27:08;10.57;;;6.03;;
7545;SDS011;3814;51.454;12.616;2022-10-31T00:29:34;9.38;;;4.97;;
7545;SDS011;3814;51.454;12.616;2022-10-31T00:31:59;10.48;;;4.90;;
7545;SDS011;3814;51.454;12.616;2022-10-31T00:34:24;19.77;;;5.28;;
7545;SDS011;3814;51.454;12.616;2022-10-31T00:36:50;9.60;;;5.05;;
7545;SDS011;3814;51.454;12.616;2022-10-31T00:39:15;12.02;;;5.63;;
7545;SDS011;3814;51.454;12.616;2022-10-31T00:41:40;10.85;;;5.05;;
7545;SDS011;3814;51.454;12.616;2022-10-31T00:44:06;11.15;;;5.18;;
7545;SDS011;3814;51.454;12.616;2022-10-31T00:46:32;11.70;;;5.10;;
7545;SDS011;3814;51.454;12.616;2022-10-31T00:48:57;9.23;;;5.30;;
7545;SDS011;3814;51.454;12.616;2022-10-31T00:51:22;12.40;;;5.20;;
7545;SDS011;3814;51.454;12.616;2022-10-31T00:53:47;14.00;;;5.30;;
7545;SDS011;3814;51.454;12.616;2022-10-31T00:56:13;11.98;;;5.13;;
7545;SDS011;3814;51.454;12.616;2022-10-31T00:58:38;10.30;;;4.82;;
7545;SDS011;3814;51.454;12.616;2022-10-31T01:01:03;10.35;;;4.80;;
7545;SDS011;3814;51.454;12.616;2022-10-31T01:03:30;9.77;;;5.03;;
7545;SDS011;3814;51.454;12.616;2022-10-31T01:06:04;10.90;;;5.05;;
7545;SDS011;3814;51.454;12.616;2022-10-31T01:08:34;9.65;;;4.90;;
7545;SDS011;3814;51.454;12.616;2022-10-31T01:11:01;13.77;;;4.63;;
7545;SDS011;3814;51.454;12.616;2022-10-31T01:13:47;9.05;;;4.50;;
7545;SDS011;3814;51.454;12.616;2022-10-31T01:16:14;12.77;;;4.63;;
7545;SDS011;3814;51.454;12.616;2022-10-31T01:18:41;10.13;;;4.72;;
7545;SDS011;3814;51.454;12.616;2022-10-31T01:21:08;9.23;;;4.45;;
7545;SDS011;3814;51.454;12.616;2022-10-31T01:23:36;8.95;;;4.28;;
7545;SDS011;3814;51.454;12.616;2022-10-31T01:26:15;9.88;;;4.65;;
7545;SDS011;3814;51.454;12.616;2022-10-31T01:28:45;9.43;;;4.55;;
7545;SDS011;3814;51.454;12.616;2022-10-31T01:31:11;8.85;;;4.65;;
7545;SDS011;3814;51.454;12.616;2022-10-31T01:33:37;8.15;;;4.45;;
7545;SDS011;3814;51.454;12.616;2022-10-31T01:36:22;12.85;;;4.57;;
7545;SDS011;3814;51.454;12.616;2022-10-31T01:38:49;9.30;;;4.60;;
7545;SDS011;3814;51.454;12.616;2022-10-31T01:41:16;9.57;;;4.80;;
7545;SDS011;3814;51.454;12.616;2022-10-31T01:43:50;9.93;;;4.80;;
7545;SDS011;3814;51.454;12.616;2022-10-31T01:46:22;11.32;;;4.38;;
7545;SDS011;3814;51.454;12.616;2022-10-31T01:48:49;12.00;;;4.72;;
7545;SDS011;3814;51.454;12.616;2022-10-31T01:51:16;11.20;;;4.40;;
7545;SDS011;3814;51.454;12.616;2022-10-31T01:53:44;9.77;;;4.82;;
7545;SDS011;3814;51.454;12.616;2022-10-31T01:56:10;10.80;;;4.93;;
7545;SDS011;3814;51.454;12.616;2022-10-31T01:58:37;11.18;;;4.70;;
7545;SDS011;3814;51.454;12.616;2022-10-31T02:01:02;10.43;;;4.78;;
7545;SDS011;3814;51.454;12.616;2022-10-31T02:03:28;11.75;;;4.50;;
7545;SDS011;3814;51.454;12.616;2022-10-31T02:05:54;11.05;;;4.63;;
7545;SDS011;3814;51.454;12.616;2022-10-31T02:08:26;11.60;;;4.93;;
7545;SDS011;3814;51.454;12.616;2022-10-31T02:10:53;9.43;;;4.38;;
7545;SDS011;3814;51.454;12.616;2022-10-31T02:13:19;9.18;;;4.20;;
7545;SDS011;3814;51.454;12.616;2022-10-31T02:15:45;12.90;;;4.68;;
7545;SDS011;3814;51.454;12.616;2022-10-31T02:18:12;13.68;;;4.47;;
7545;SDS011;3814;51.454;12.616;2022-10-31T02:20:43;9.10;;;4.38;;
7545;SDS011;3814;51.454;12.616;2022-10-31T02:34:18;12.33;;;4.30;;
7545;SDS011;3814;51.454;12.616;2022-10-31T02:37:07;9.52;;;4.38;;
7545;SDS011;3814;51.454;12.616;2022-10-31T02:42:15;12.20;;;4.47;;
7545;SDS011;3814;51.454;12.616;2022-10-31T02:47:19;9.27;;;4.30;;
7545;SDS011;3814;51.454;12.616;2022-10-31T02:49:55;8.52;;;4.65;;
7545;SDS011;3814;51.454;12.616;2022-10-31T02:52:31;8.55;;;4.40;;
7545;SDS011;3814;51.454;12.616;2022-10-31T02:54:57;10.00;;;4.63;;
7545;SDS011;3814;51.454;12.616;2022-10-31T02:57:28;11.90;;;4.68;;
7545;SDS011;3814;51.454;12.616;2022-10-31T02:59:57;9.73;;;4.70;;
7545;SDS011;3814;51.454;12.616;2022-10-31T03:08:30;13.35;;;4.82;;
7545;SDS011;3814;51.454;12.616;2022-10-31T03:10:57;10.05;;;4.43;;
7545;SDS011;3814;51.454;12.616;2022-10-31T03:13:27;9.15;;;4.55;;
7545;SDS011;3814;51.454;12.616;2022-10-31T03:15:56;11.38;;;5.05;;
7545;SDS011;3814;51.454;12.616;2022-10-31T03:18:55;13.35;;;4.50;;
7545;SDS011;3814;51.454;12.616;2022-10-31T03:21:38;12.65;;;4.60;;
7545;SDS011;3814;51.454;12.616;2022-10-31T03:24:08;13.55;;;4.88;;
7545;SDS011;3814;51.454;12.616;2022-10-31T03:26:38;7.25;;;4.30;;
7545;SDS011;3814;51.454;12.616;2022-10-31T03:29:07;10.65;;;4.72;;
7545;SDS011;3814;51.454;12.616;2022-10-31T03:31:36;10.88;;;4.22;;
7545;SDS011;3814;51.454;12.616;2022-10-31T03:34:04;10.23;;;4.45;;
7545;SDS011;3814;51.454;12.616;2022-10-31T03:36:31;14.70;;;4.85;;
7545;SDS011;3814;51.454;12.616;2022-10-31T03:38:58;11.43;;;4.82;;
7545;SDS011;3814;51.454;12.616;2022-10-31T03:41:25;11.32;;;5.10;;
7545;SDS011;3814;51.454;12.616;2022-10-31T03:43:55;8.73;;;4.65;;
7545;SDS011;3814;51.454;12.616;2022-10-31T03:46:23;10.07;;;4.90;;
7545;SDS011;3814;51.454;12.616;2022-10-31T03:48:48;11.73;;;5.13;;
7545;SDS011;3814;51.454;12.616;2022-10-31T03:51:18;8.73;;;4.80;;
7545;SDS011;3814;51.454;12.616;2022-10-31T03:53:52;12.23;;;4.90;;
7545;SDS011;3814;51.454;12.616;2022-10-31T03:56:33;10.52;;;4.70;;
7545;SDS011;3814;51.454;12.616;2022-10-31T03:59:03;13.40;;;5.20;;
7545;SDS011;3814;51.454;12.616;2022-10-31T04:01:35;11.85;;;4.57;;
7545;SDS011;3814;51.454;12.616;2022-10-31T04:04:03;10.05;;;4.70;;
7545;SDS011;3814;51.454;12.616;2022-10-31T04:06:30;11.52;;;4.63;;
7545;SDS011;3814;51.454;12.616;2022-10-31T04:08:57;9.35;;;4.40;;
7545;SDS011;3814;51.454;12.616;2022-10-31T04:11:27;9.93;;;4.50;;
7545;SDS011;3814;51.454;12.616;2022-10-31T04:13:55;9.27;;;4.82;;
7545;SDS011;3814;51.454;12.616;2022-10-31T04:16:21;10.93;;;4.90;;
7545;SDS011;3814;51.454;12.616;2022-10-31T04:18:48;11.98;;;5.15;;
7545;SDS011;3814;51.454;12.616;2022-10-31T04:21:13;11.85;;;5.15;;
7545;SDS011;3814;51.454;12.616;2022-10-31T04:23:39;12.65;;;4.85;;
7545;SDS011;3814;51.454;12.616;2022-10-31T04:26:04;12.65;;;5.20;;
7545;SDS011;3814;51.454;12.616;2022-10-31T04:28:29;10.68;;;4.95;;
7545;SDS011;3814;51.454;12.616;2022-10-31T04:30:55;12.52;;;5.20;;
7545;SDS011;3814;51.454;12.616;2022-10-31T04:33:20;10.23;;;4.93;;
7545;SDS011;3814;51.454;12.616;2022-10-31T04:35:45;10.98;;;5.10;;
7545;SDS011;3814;51.454;12.616;2022-10-31T04:38:12;13.70;;;5.85;;
7545;SDS011;3814;51.454;12.616;2022-10-31T04:40:37;12.95;;;5.40;;
7545;SDS011;3814;51.454;12.616;2022-10-31T04:43:02;10.02;;;5.10;;
7545;SDS011;3814;51.454;12.616;2022-10-31T04:45:28;14.35;;;5.28;;
7545;SDS011;3814;51.454;12.616;2022-10-31T04:47:53;11.40;;;5.05;;
7545;SDS011;3814;51.454;12.616;2022-10-31T04:50:18;10.25;;;5.20;;
7545;SDS011;3814;51.454;12.616;2022-10-31T04:52:44;12.20;;;5.38;;
7545;SDS011;3814;51.454;12.616;2022-10-31T04:55:10;10.68;;;4.85;;
7545;SDS011;3814;51.454;12.616;2022-10-31T04:57:40;12.50;;;5.30;;
7545;SDS011;3814;51.454;12.616;2022-10-31T05:00:10;12.98;;;5.40;;
7545;SDS011;3814;51.454;12.616;2022-10-31T05:02:56;11.10;;;5.53;;
7545;SDS011;3814;51.454;12.616;2022-10-31T05:05:27;13.00;;;5.60;;
7545;SDS011;3814;51.454;12.616;2022-10-31T05:07:53;11.50;;;4.93;;
7545;SDS011;3814;51.454;12.616;2022-10-31T05:10:20;9.80;;;5.07;;
7545;SDS011;3814;51.454;12.616;2022-10-31T05:12:47;11.02;;;5.15;;
7545;SDS011;3814;51.454;12.616;2022-10-31T05:15:14;11.93;;;5.60;;
7545;SDS011;3814;51.454;12.616;2022-10-31T05:17:39;11.07;;;5.10;;
7545;SDS011;3814;51.454;12.616;2022-10-31T05:20:05;15.15;;;5.35;;
7545;SDS011;3814;51.454;12.616;2022-10-31T05:22:31;13.75;;;5.50;;
7545;SDS011;3814;51.454;12.616;2022-10-31T05:24:56;12.45;;;5.13;;
7545;SDS011;3814;51.454;12.616;2022-10-31T05:27:21;12.05;;;5.18;;
7545;SDS011;3814;51.454;12.616;2022-10-31T05:29:47;12.55;;;5.32;;
7545;SDS011;3814;51.454;12.616;2022-10-31T05:32:12;14.13;;;5.50;;
7545;SDS011;3814;51.454;12.616;2022-10-31T05:34:37;11.35;;;5.05;;
7545;SDS011;3814;51.454;12.616;2022-10-31T05:37:03;12.68;;;5.30;;
7545;SDS011;3814;51.454;12.616;2022-10-31T05:39:28;11.32;;;5.55;;
7545;SDS011;3814;51.454;12.616;2022-10-31T05:41:53;10.82;;;4.85;;
7545;SDS011;3814;51.454;12.616;2022-10-31T05:44:19;11.13;;;5.15;;
7545;SDS011;3814;51.454;12.616;2022-10-31T05:46:45;10.48;;;4.97;;
7545;SDS011;3814;51.454;12.616;2022-10-31T05:49:11;11.95;;;5.10;;
7545;SDS011;3814;51.454;12.616;2022-10-31T05:51:36;11.48;;;4.97;;
7545;SDS011;3814;51.454;12.616;2022-10-31T05:54:02;9.32;;;4.28;;
7545;SDS011;3814;51.454;12.616;2022-10-31T05:56:27;11.88;;;5.05;;
7545;SDS011;3814;51.454;12.616;2022-10-31T05:58:53;8.50;;;4.47;;
7545;SDS011;3814;51.454;12.616;2022-10-31T06:01:18;11.02;;;5.28;;
7545;SDS011;3814;51.454;12.616;2022-10-31T06:03:44;10.70;;;4.68;;
7545;SDS011;3814;51.454;12.616;2022-10-31T06:06:09;8.52;;;4.55;;
7545;SDS011;3814;51.454;12.616;2022-10-31T06:08:35;9.02;;;4.43;;
7545;SDS011;3814;51.454;12.616;2022-10-31T06:11:00;8.57;;;4.55;;
7545;SDS011;3814;51.454;12.616;2022-10-31T06:13:26;11.27;;;5.28;;
7545;SDS011;3814;51.454;12.616;2022-10-31T06:15:51;9.32;;;4.30;;
7545;SDS011;3814;51.454;12.616;2022-10-31T06:18:16;13.27;;;4.82;;
7545;SDS011;3814;51.454;12.616;2022-10-31T06:20:42;9.65;;;4.70;;
7545;SDS011;3814;51.454;12.616;2022-10-31T06:23:07;9.77;;;4.80;;
7545;SDS011;3814;51.454;12.616;2022-10-31T06:25:32;9.57;;;5.20;;
7545;SDS011;3814;51.454;12.616;2022-10-31T06:27:58;10.40;;;5.28;;
7545;SDS011;3814;51.454;12.616;2022-10-31T06:30:23;10.07;;;5.00;;
7545;SDS011;3814;51.454;12.616;2022-10-31T06:32:49;9.93;;;5.05;;
7545;SDS011;3814;51.454;12.616;2022-10-31T06:35:14;14.30;;;5.75;;
7545;SDS011;3814;51.454;12.616;2022-10-31T06:37:40;10.55;;;5.43;;
7545;SDS011;3814;51.454;12.616;2022-10-31T06:40:05;9.57;;;5.13;;
7545;SDS011;3814;51.454;12.616;2022-10-31T06:42:31;12.02;;;5.25;;
7545;SDS011;3814;51.454;12.616;2022-10-31T06:44:56;10.60;;;4.90;;
7545;SDS011;3814;51.454;12.616;2022-10-31T06:47:21;10.73;;;5.50;;
7545;SDS011;3814;51.454;12.616;2022-10-31T06:49:47;12.00;;;5.50;;
7545;SDS011;3814;51.454;12.616;2022-10-31T06:52:12;11.15;;;5.43;;
7545;SDS011;3814;51.454;12.616;2022-10-31T06:54:37;10.70;;;5.53;;
7545;SDS011;3814;51.454;12.616;2022-10-31T06:57:03;12.43;;;5.60;;
7545;SDS011;3814;51.454;12.616;2022-10-31T06:59:28;10.75;;;5.70;;
7545;SDS011;3814;51.454;12.616;2022-10-31T07:01:54;11.50;;;5.43;;
7545;SDS011;3814;51.454;12.616;2022-10-31T07:04:19;11.90;;;5.68;;
7545;SDS011;3814;51.454;12.616;2022-10-31T07:06:44;11.20;;;5.72;;
7545;SDS011;3814;51.454;12.616;2022-10-31T07:09:10;11.77;;;5.72;;
7545;SDS011;3814;51.454;12.616;2022-10-31T07:11:35;12.52;;;5.32;;
7545;SDS011;3814;51.454;12.616;2022-10-31T07:14:01;14.02;;;6.90;;
7545;SDS011;3814;51.454;12.616;2022-10-31T07:16:26;13.32;;;6.25;;
7545;SDS011;3814;51.454;12.616;2022-10-31T07:18:51;11.77;;;5.88;;
7545;SDS011;3814;51.454;12.616;2022-10-31T07:21:17;11.20;;;6.00;;
7545;SDS011;3814;51.454;12.616;2022-10-31T07:23:42;12.98;;;6.03;;
7545;SDS011;3814;51.454;12.616;2022-10-31T07:26:08;17.52;;;6.38;;
7545;SDS011;3814;51.454;12.616;2022-10-31T07:28:34;12.82;;;6.20;;
7545;SDS011;3814;51.454;12.616;2022-10-31T07:31:00;13.65;;;6.38;;
7545;SDS011;3814;51.454;12.616;2022-10-31T07:33:25;13.77;;;6.55;;
7545;SDS011;3814;51.454;12.616;2022-10-31T07:35:51;15.75;;;6.70;;
7545;SDS011;3814;51.454;12.616;2022-10-31T07:38:16;16.23;;;6.90;;
7545;SDS011;3814;51.454;12.616;2022-10-31T07:40:42;15.10;;;6.65;;
7545;SDS011;3814;51.454;12.616;2022-10-31T07:43:08;14.27;;;7.88;;
7545;SDS011;3814;51.454;12.616;2022-10-31T07:45:35;15.32;;;8.23;;
7545;SDS011;3814;51.454;12.616;2022-10-31T07:48:00;30.98;;;9.25;;
7545;SDS011;3814;51.454;12.616;2022-10-31T07:50:28;19.50;;;8.90;;
7545;SDS011;3814;51.454;12.616;2022-10-31T07:53:02;19.67;;;8.48;;
7545;SDS011;3814;51.454;12.616;2022-10-31T07:55:29;17.95;;;8.75;;
7545;SDS011;3814;51.454;12.616;2022-10-31T07:58:16;14.27;;;8.55;;
7545;SDS011;3814;51.454;12.616;2022-10-31T08:00:42;17.23;;;8.32;;
7545;SDS011;3814;51.454;12.616;2022-10-31T08:03:13;14.82;;;7.57;;
7545;SDS011;3814;51.454;12.616;2022-10-31T08:05:40;19.08;;;7.68;;
7545;SDS011;3814;51.454;12.616;2022-10-31T08:08:06;13.15;;;7.18;;
7545;SDS011;3814;51.454;12.616;2022-10-31T08:10:32;16.35;;;7.22;;
7545;SDS011;3814;51.454;12.616;2022-10-31T08:12:59;14.15;;;7.43;;
7545;SDS011;3814;51.454;12.616;2022-10-31T08:15:25;16.13;;;7.00;;
7545;SDS011;3814;51.454;12.616;2022-10-31T08:17:51;12.13;;;6.93;;
7545;SDS011;3814;51.454;12.616;2022-10-31T08:20:16;15.27;;;7.65;;
7545;SDS011;3814;51.454;12.616;2022-10-31T08:22:42;13.57;;;7.65;;
7545;SDS011;3814;51.454;12.616;2022-10-31T08:25:07;14.93;;;7.28;;
7545;SDS011;3814;51.454;12.616;2022-10-31T08:27:33;14.73;;;7.15;;
7545;SDS011;3814;51.454;12.616;2022-10-31T08:29:58;13.20;;;7.07;;
7545;SDS011;3814;51.454;12.616;2022-10-31T08:32:24;13.23;;;7.00;;
7545;SDS011;3814;51.454;12.616;2022-10-31T08:34:49;14.18;;;6.13;;
7545;SDS011;3814;51.454;12.616;2022-10-31T08:37:15;13.45;;;6.43;;
7545;SDS011;3814;51.454;12.616;2022-10-31T08:39:44;13.10;;;6.30;;
7545;SDS011;3814;51.454;12.616;2022-10-31T08:42:13;17.10;;;6.90;;
7545;SDS011;3814;51.454;12.616;2022-10-31T08:44:38;15.55;;;6.40;;
7545;SDS011;3814;51.454;12.616;2022-10-31T08:47:04;17.10;;;6.63;;
7545;SDS011;3814;51.454;12.616;2022-10-31T08:49:29;14.88;;;7.28;;
7545;SDS011;3814;51.454;12.616;2022-10-31T08:51:55;18.73;;;7.32;;
7545;SDS011;3814;51.454;12.616;2022-10-31T08:54:20;17.25;;;7.38;;
7545;SDS011;3814;51.454;12.616;2022-10-31T08:56:45;19.52;;;8.30;;
7545;SDS011;3814;51.454;12.616;2022-10-31T08:59:11;22.13;;;8.10;;
7545;SDS011;3814;51.454;12.616;2022-10-31T09:01:36;20.77;;;8.82;;
7545;SDS011;3814;51.454;12.616;2022-10-31T09:04:01;20.20;;;8.50;;
7545;SDS011;3814;51.454;12.616;2022-10-31T09:06:27;20.92;;;8.80;;
7545;SDS011;3814;51.454;12.616;2022-10-31T09:08:52;22.02;;;9.35;;
7545;SDS011;3814;51.454;12.616;2022-10-31T09:11:17;26.17;;;10.80;;
7545;SDS011;3814;51.454;12.616;2022-10-31T09:13:43;29.80;;;11.88;;
7545;SDS011;3814;51.454;12.616;2022-10-31T09:16:08;31.33;;;12.13;;
7545;SDS011;3814;51.454;12.616;2022-10-31T09:18:33;28.88;;;11.43;;
7545;SDS011;3814;51.454;12.616;2022-10-31T09:20:59;31.45;;;12.32;;
7545;SDS011;3814;51.454;12.616;2022-10-31T09:23:25;26.30;;;12.18;;
7545;SDS011;3814;51.454;12.616;2022-10-31T09:25:51;29.60;;;12.57;;
7545;SDS011;3814;51.454;12.616;2022-10-31T09:28:18;30.17;;;12.18;;
7545;SDS011;3814;51.454;12.616;2022-10-31T09:30:46;30.35;;;11.90;;
7545;SDS011;3814;51.454;12.616;2022-10-31T09:33:12;33.25;;;13.43;;
7545;SDS011;3814;51.454;12.616;2022-10-31T09:35:38;29.40;;;12.90;;
7545;SDS011;3814;51.454;12.616;2022-10-31T09:38:05;29.33;;;12.18;;
7545;SDS011;3814;51.454;12.616;2022-10-31T09:40:35;30.27;;;12.35;;
7545;SDS011;3814;51.454;12.616;2022-10-31T09:45:37;32.78;;;12.93;;
7545;SDS011;3814;51.454;12.616;2022-10-31T09:55:59;32.42;;;12.70;;
7545;SDS011;3814;51.454;12.616;2022-10-31T09:58:26;29.10;;;13.07;;
7545;SDS011;3814;51.454;12.616;2022-10-31T10:00:53;33.13;;;13.35;;
7545;SDS011;3814;51.454;12.616;2022-10-31T10:03:31;33.83;;;13.70;;
7545;SDS011;3814;51.454;12.616;2022-10-31T10:06:06;27.45;;;11.50;;
7545;SDS011;3814;51.454;12.616;2022-10-31T10:20:37;36.83;;;14.10;;
7545;SDS011;3814;51.454;12.616;2022-10-31T10:23:22;33.75;;;13.82;;
7545;SDS011;3814;51.454;12.616;2022-10-31T10:25:56;33.47;;;13.88;;
7545;SDS011;3814;51.454;12.616;2022-10-31T10:28:32;35.45;;;15.00;;
7545;SDS011;3814;51.454;12.616;2022-10-31T10:31:23;32.35;;;14.68;;
7545;SDS011;3814;51.454;12.616;2022-10-31T10:33:57;38.03;;;14.18;;
7545;SDS011;3814;51.454;12.616;2022-10-31T10:39:45;31.88;;;13.52;;
7545;SDS011;3814;51.454;12.616;2022-10-31T10:42:15;31.13;;;12.70;;
7545;SDS011;3814;51.454;12.616;2022-10-31T10:45:00;29.52;;;13.43;;
7545;SDS011;3814;51.454;12.616;2022-10-31T10:47:58;32.88;;;12.75;;
7545;SDS011;3814;51.454;12.616;2022-10-31T10:50:48;37.67;;;14.90;;
7545;SDS011;3814;51.454;12.616;2022-10-31T10:55:54;28.15;;;12.20;;
7545;SDS011;3814;51.454;12.616;2022-10-31T10:58:23;36.67;;;14.60;;
7545;SDS011;3814;51.454;12.616;2022-10-31T11:00:48;33.65;;;13.43;;
7545;SDS011;3814;51.454;12.616;2022-10-31T11:03:15;35.90;;;14.98;;
7545;SDS011;3814;51.454;12.616;2022-10-31T11:10:35;33.90;;;13.23;;
7545;SDS011;3814;51.454;12.616;2022-10-31T11:15:33;30.90;;;12.30;;
7545;SDS011;3814;51.454;12.616;2022-10-31T11:18:02;37.25;;;15.10;;
7545;SDS011;3814;51.454;12.616;2022-10-31T11:20:32;31.33;;;13.45;;
7545;SDS011;3814;51.454;12.616;2022-10-31T11:23:04;36.05;;;13.93;;
7545;SDS011;3814;51.454;12.616;2022-10-31T11:25:49;36.55;;;14.95;;
7545;SDS011;3814;51.454;12.616;2022-10-31T11:28:22;29.73;;;12.38;;
7545;SDS011;3814;51.454;12.616;2022-10-31T11:30:48;41.63;;;16.27;;
7545;SDS011;3814;51.454;12.616;2022-10-31T11:35:47;34.15;;;13.63;;
7545;SDS011;3814;51.454;12.616;2022-10-31T11:38:20;30.80;;;12.73;;
7545;SDS011;3814;51.454;12.616;2022-10-31T11:40:53;35.92;;;13.20;;
7545;SDS011;3814;51.454;12.616;2022-10-31T11:43:21;42.53;;;16.33;;
7545;SDS011;3814;51.454;12.616;2022-10-31T11:45:47;40.20;;;15.65;;
7545;SDS011;3814;51.454;12.616;2022-10-31T11:48:15;33.88;;;13.52;;
7545;SDS011;3814;51.454;12.616;2022-10-31T11:50:49;41.15;;;16.77;;
7545;SDS011;3814;51.454;12.616;2022-10-31T11:53:17;35.55;;;15.07;;
7545;SDS011;3814;51.454;12.616;2022-10-31T11:55:44;36.65;;;15.02;;
7545;SDS011;3814;51.454;12.616;2022-10-31T11:58:26;35.20;;;15.07;;
7545;SDS011;3814;51.454;12.616;2022-10-31T12:00:52;43.20;;;16.42;;
7545;SDS011;3814;51.454;12.616;2022-10-31T12:05:48;37.08;;;15.10;;
7545;SDS011;3814;51.454;12.616;2022-10-31T12:08:17;33.97;;;14.45;;
7545;SDS011;3814;51.454;12.616;2022-10-31T12:13:24;34.03;;;15.15;;
7545;SDS011;3814;51.454;12.616;2022-10-31T12:16:00;38.83;;;15.75;;
7545;SDS011;3814;51.454;12.616;2022-10-31T12:21:43;42.80;;;17.13;;
7545;SDS011;3814;51.454;12.616;2022-10-31T12:24:47;40.80;;;16.20;;
7545;SDS011;3814;51.454;12.616;2022-10-31T12:34:59;47.13;;;18.97;;
7545;SDS011;3814;51.454;12.616;2022-10-31T12:40:23;46.17;;;18.42;;
7545;SDS011;3814;51.454;12.616;2022-10-31T12:45:34;48.60;;;17.83;;
7545;SDS011;3814;51.454;12.616;2022-10-31T12:48:08;46.03;;;18.75;;
7545;SDS011;3814;51.454;12.616;2022-10-31T12:58:42;44.03;;;16.98;;
7545;SDS011;3814;51.454;12.616;2022-10-31T13:01:24;36.90;;;15.52;;
7545;SDS011;3814;51.454;12.616;2022-10-31T13:03:53;39.42;;;16.35;;
7545;SDS011;3814;51.454;12.616;2022-10-31T13:06:20;41.38;;;17.05;;
7545;SDS011;3814;51.454;12.616;2022-10-31T13:11:34;42.90;;;18.77;;
7545;SDS011;3814;51.454;12.616;2022-10-31T13:14:11;44.92;;;17.92;;
7545;SDS011;3814;51.454;12.616;2022-10-31T13:16:40;34.80;;;15.07;;
7545;SDS011;3814;51.454;12.616;2022-10-31T13:21:49;39.03;;;16.48;;
7545;SDS011;3814;51.454;12.616;2022-10-31T13:24:21;42.67;;;17.23;;
7545;SDS011;3814;51.454;12.616;2022-10-31T13:26:57;37.33;;;15.30;;
7545;SDS011;3814;51.454;12.616;2022-10-31T13:31:55;32.20;;;14.20;;
7545;SDS011;3814;51.454;12.616;2022-10-31T13:34:29;41.65;;;18.13;;
7545;SDS011;3814;51.454;12.616;2022-10-31T13:37:04;43.85;;;17.55;;
7545;SDS011;3814;51.454;12.616;2022-10-31T13:39:42;32.65;;;14.90;;
7545;SDS011;3814;51.454;12.616;2022-10-31T13:42:19;30.08;;;14.23;;
7545;SDS011;3814;51.454;12.616;2022-10-31T13:44:50;31.75;;;13.82;;
7545;SDS011;3814;51.454;12.616;2022-10-31T13:50:06;30.95;;;12.95;;
7545;SDS011;3814;51.454;12.616;2022-10-31T13:52:45;29.20;;;13.10;;
7545;SDS011;3814;51.454;12.616;2022-10-31T13:58:03;37.80;;;16.17;;
7545;SDS011;3814;51.454;12.616;2022-10-31T14:00:29;29.70;;;13.13;;
7545;SDS011;3814;51.454;12.616;2022-10-31T14:02:59;39.65;;;16.38;;
7545;SDS011;3814;51.454;12.616;2022-10-31T14:07:55;38.80;;;17.23;;
7545;SDS011;3814;51.454;12.616;2022-10-31T14:10:28;42.50;;;17.13;;
7545;SDS011;3814;51.454;12.616;2022-10-31T14:16:07;31.90;;;14.27;;
7545;SDS011;3814;51.454;12.616;2022-10-31T14:18:44;29.45;;;12.27;;
7545;SDS011;3814;51.454;12.616;2022-10-31T14:23:53;31.55;;;14.55;;
7545;SDS011;3814;51.454;12.616;2022-10-31T14:26:20;33.55;;;13.80;;
7545;SDS011;3814;51.454;12.616;2022-10-31T14:28:46;40.50;;;17.08;;
7545;SDS011;3814;51.454;12.616;2022-10-31T14:34:23;37.47;;;17.67;;
7545;SDS011;3814;51.454;12.616;2022-10-31T14:42:25;44.95;;;19.27;;
7545;SDS011;3814;51.454;12.616;2022-10-31T14:50:56;40.25;;;17.02;;
7545;SDS011;3814;51.454;12.616;2022-10-31T14:53:30;37.00;;;16.35;;
7545;SDS011;3814;51.454;12.616;2022-10-31T14:55:58;33.80;;;14.98;;
7545;SDS011;3814;51.454;12.616;2022-10-31T14:58:34;37.70;;;15.10;;
7545;SDS011;3814;51.454;12.616;2022-10-31T15:01:02;40.90;;;16.73;;
7545;SDS011;3814;51.454;12.616;2022-10-31T15:06:14;40.10;;;16.83;;
7545;SDS011;3814;51.454;12.616;2022-10-31T15:08:45;38.83;;;15.60;;
7545;SDS011;3814;51.454;12.616;2022-10-31T15:11:19;36.22;;;15.88;;
7545;SDS011;3814;51.454;12.616;2022-10-31T15:13:49;34.03;;;15.25;;
7545;SDS011;3814;51.454;12.616;2022-10-31T15:16:19;38.15;;;16.67;;
7545;SDS011;3814;51.454;12.616;2022-10-31T15:18:56;40.20;;;17.63;;
7545;SDS011;3814;51.454;12.616;2022-10-31T15:21:24;36.70;;;15.98;;
7545;SDS011;3814;51.454;12.616;2022-10-31T15:23:52;33.33;;;14.32;;
7545;SDS011;3814;51.454;12.616;2022-10-31T15:26:19;40.95;;;18.02;;
7545;SDS011;3814;51.454;12.616;2022-10-31T15:28:45;45.72;;;19.50;;
7545;SDS011;3814;51.454;12.616;2022-10-31T15:31:17;44.47;;;19.80;;
7545;SDS011;3814;51.454;12.616;2022-10-31T15:33:44;42.13;;;18.77;;
7545;SDS011;3814;51.454;12.616;2022-10-31T15:36:17;49.78;;;21.15;;
7545;SDS011;3814;51.454;12.616;2022-10-31T15:38:44;46.17;;;20.02;;
7545;SDS011;3814;51.454;12.616;2022-10-31T15:41:24;43.42;;;19.15;;
7545;SDS011;3814;51.454;12.616;2022-10-31T15:43:52;43.70;;;17.88;;
7545;SDS011;3814;51.454;12.616;2022-10-31T15:46:19;47.10;;;19.83;;
7545;SDS011;3814;51.454;12.616;2022-10-31T15:48:45;42.08;;;16.88;;
7545;SDS011;3814;51.454;12.616;2022-10-31T15:51:11;45.80;;;19.33;;
7545;SDS011;3814;51.454;12.616;2022-10-31T15:53:45;44.42;;;19.95;;
7545;SDS011;3814;51.454;12.616;2022-10-31T15:56:13;40.35;;;17.35;;
7545;SDS011;3814;51.454;12.616;2022-10-31T15:58:46;40.75;;;17.90;;
7545;SDS011;3814;51.454;12.616;2022-10-31T16:01:20;45.05;;;19.83;;
7545;SDS011;3814;51.454;12.616;2022-10-31T16:04:00;45.63;;;18.77;;
7545;SDS011;3814;51.454;12.616;2022-10-31T16:06:27;41.58;;;17.40;;
7545;SDS011;3814;51.454;12.616;2022-10-31T16:08:52;40.72;;;19.52;;
7545;SDS011;3814;51.454;12.616;2022-10-31T16:11:27;45.05;;;19.33;;
7545;SDS011;3814;51.454;12.616;2022-10-31T16:13:57;47.42;;;20.60;;
7545;SDS011;3814;51.454;12.616;2022-10-31T16:16:23;40.80;;;18.50;;
7545;SDS011;3814;51.454;12.616;2022-10-31T16:18:49;39.65;;;19.42;;
7545;SDS011;3814;51.454;12.616;2022-10-31T16:21:22;36.90;;;17.58;;
7545;SDS011;3814;51.454;12.616;2022-10-31T16:23:49;38.80;;;17.27;;
7545;SDS011;3814;51.454;12.616;2022-10-31T16:26:19;41.13;;;18.75;;
7545;SDS011;3814;51.454;12.616;2022-10-31T16:28:51;42.40;;;18.45;;
7545;SDS011;3814;51.454;12.616;2022-10-31T16:31:35;54.60;;;20.83;;
7545;SDS011;3814;51.454;12.616;2022-10-31T16:34:03;53.65;;;21.92;;
7545;SDS011;3814;51.454;12.616;2022-10-31T16:36:32;58.40;;;22.85;;
7545;SDS011;3814;51.454;12.616;2022-10-31T16:39:03;48.47;;;20.02;;
7545;SDS011;3814;51.454;12.616;2022-10-31T16:41:28;54.63;;;22.27;;
7545;SDS011;3814;51.454;12.616;2022-10-31T16:43:54;48.22;;;20.92;;
7545;SDS011;3814;51.454;12.616;2022-10-31T16:46:24;53.95;;;21.70;;
7545;SDS011;3814;51.454;12.616;2022-10-31T16:48:50;46.88;;;20.65;;
7545;SDS011;3814;51.454;12.616;2022-10-31T16:51:16;52.33;;;23.17;;
7545;SDS011;3814;51.454;12.616;2022-10-31T16:53:41;52.15;;;23.42;;
7545;SDS011;3814;51.454;12.616;2022-10-31T16:56:10;52.58;;;23.23;;
7545;SDS011;3814;51.454;12.616;2022-10-31T16:58:40;56.35;;;23.27;;
7545;SDS011;3814;51.454;12.616;2022-10-31T17:01:05;58.63;;;23.10;;